sensor_id;sensor_type;location;lat;lon;timestamp;pressure;altitude;pressure_sealevel;temperature;humidity
27613;BME280;15036;48.094;-1.690;2023-04-29T00:02:18;101179.53;;;17.93;58.58
27613;BME280;15036;48.094;-1.690;2023-04-29T00:04:43;101174.88;;;18.17;58.45
27613;BME280;15036;48.094;-1.690;2023-04-29T00:07:08;101171.69;;;17.79;59.34
27613;BME280;15036;48.094;-1.690;2023-04-29T00:09:34;101176.59;;;18.18;58.33
27613;BME280;15036;48.094;-1.690;2023-04-29T00:12:00;101168.03;;;17.96;58.50
27613;BME280;15036;48.094;-1.690;2023-04-29T00:14:26;101166.41;;;17.89;59.62
27613;BME280;15036;48.094;-1.690;2023-04-29T00:16:52;101173.00;;;17.76;60.14
27613;BME280;15036;48.094;-1.690;2023-04-29T00:19:17;101168.06;;;18.31;58.41
27613;BME280;15036;48.094;-1.690;2023-04-29T00:21:43;101171.66;;;18.32;58.34
27613;BME280;15036;48.094;-1.690;2023-04-29T00:24:09;101176.31;;;18.08;59.33
27613;BME280;15036;48.094;-1.690;2023-04-29T00:26:34;101171.44;;;17.69;59.85
27613;BME280;15036;48.094;-1.690;2023-04-29T00:29:01;101166.91;;;17.86;60.13
27613;BME280;15036;48.094;-1.690;2023-04-29T00:31:27;101171.25;;;17.93;59.12
27613;BME280;15036;48.094;-1.690;2023-04-29T00:33:52;101173.03;;;17.88;59.46
27613;BME280;15036;48.094;-1.690;2023-04-29T00:36:18;101160.81;;;18.18;58.47
27613;BME280;15036;48.094;-1.690;2023-04-29T00:38:43;101164.44;;;18.42;58.36
27613;BME280;15036;48.094;-1.690;2023-04-29T00:41:08;101153.19;;;18.44;57.94
27613;BME280;15036;48.094;-1.690;2023-04-29T00:43:34;101149.31;;;18.56;57.46
27613;BME280;15036;48.094;-1.690;2023-04-29T00:45:59;101145.72;;;18.56;57.54
27613;BME280;15036;48.094;-1.690;2023-04-29T00:48:25;101149.47;;;18.50;57.28
27613;BME280;15036;48.094;-1.690;2023-04-29T00:50:50;101156.59;;;18.04;58.65
27613;BME280;15036;48.094;-1.690;2023-04-29T00:53:16;101157.13;;;17.42;60.17
27613;BME280;15036;48.094;-1.690;2023-04-29T00:55:43;101150.06;;;17.76;60.34
27613;BME280;15036;48.094;-1.690;2023-04-29T00:58:08;101155.03;;;17.26;61.48
27613;BME280;15036;48.094;-1.690;2023-04-29T01:00:34;101156.47;;;17.28;61.58
27613;BME280;15036;48.094;-1.690;2023-04-29T01:03:01;101154.53;;;16.99;61.97
27613;BME280;15036;48.094;-1.690;2023-04-29T01:05:26;101168.38;;;16.57;63.04
27613;BME280;15036;48.094;-1.690;2023-04-29T01:10:28;101159.34;;;16.50;62.43
27613;BME280;15036;48.094;-1.690;2023-04-29T01:13:08;101157.13;;;16.58;61.94
27613;BME280;15036;48.094;-1.690;2023-04-29T01:16:01;101158.28;;;16.87;61.71
27613;BME280;15036;48.094;-1.690;2023-04-29T01:18:36;101147.56;;;16.79;62.12
27613;BME280;15036;48.094;-1.690;2023-04-29T01:21:03;101147.91;;;17.18;60.53
27613;BME280;15036;48.094;-1.690;2023-04-29T01:23:29;101146.03;;;16.65;62.59
27613;BME280;15036;48.094;-1.690;2023-04-29T01:25:55;101147.56;;;16.79;61.92
27613;BME280;15036;48.094;-1.690;2023-04-29T01:31:18;101158.50;;;16.49;62.65
27613;BME280;15036;48.094;-1.690;2023-04-29T01:41:44;101166.84;;;16.61;61.95
27613;BME280;15036;48.094;-1.690;2023-04-29T01:44:19;101163.94;;;16.92;61.10
27613;BME280;15036;48.094;-1.690;2023-04-29T01:46:49;101174.75;;;17.41;59.29
27613;BME280;15036;48.094;-1.690;2023-04-29T01:49:27;101170.44;;;17.15;59.24
27613;BME280;15036;48.094;-1.690;2023-04-29T01:51:53;101177.16;;;17.38;58.65
27613;BME280;15036;48.094;-1.690;2023-04-29T01:54:19;101167.66;;;17.33;59.23
27613;BME280;15036;48.094;-1.690;2023-04-29T01:56:46;101179.91;;;17.38;58.80
27613;BME280;15036;48.094;-1.690;2023-04-29T01:59:12;101184.63;;;17.67;57.98
27613;BME280;15036;48.094;-1.690;2023-04-29T02:01:38;101189.69;;;17.70;57.83
27613;BME280;15036;48.094;-1.690;2023-04-29T02:04:03;101196.94;;;17.82;57.35
27613;BME280;15036;48.094;-1.690;2023-04-29T02:06:28;101191.19;;;17.54;58.16
27613;BME280;15036;48.094;-1.690;2023-04-29T02:08:56;101192.97;;;17.12;59.54
27613;BME280;15036;48.094;-1.690;2023-04-29T02:11:22;101190.66;;;17.09;59.90
27613;BME280;15036;48.094;-1.690;2023-04-29T02:13:47;101198.81;;;16.86;60.62
27613;BME280;15036;48.094;-1.690;2023-04-29T02:16:13;101201.88;;;16.96;60.02
27613;BME280;15036;48.094;-1.690;2023-04-29T02:18:39;101207.16;;;17.16;59.82
27613;BME280;15036;48.094;-1.690;2023-04-29T02:21:05;101210.75;;;17.16;60.38
27613;BME280;15036;48.094;-1.690;2023-04-29T02:23:30;101204.25;;;16.93;60.85
27613;BME280;15036;48.094;-1.690;2023-04-29T02:25:56;101200.22;;;16.95;61.18
27613;BME280;15036;48.094;-1.690;2023-04-29T02:28:21;101196.94;;;17.53;59.81
27613;BME280;15036;48.094;-1.690;2023-04-29T02:30:50;101190.56;;;17.82;59.14
27613;BME280;15036;48.094;-1.690;2023-04-29T02:33:16;101186.28;;;17.97;58.75
27613;BME280;15036;48.094;-1.690;2023-04-29T02:35:42;101197.88;;;17.76;59.33
27613;BME280;15036;48.094;-1.690;2023-04-29T02:38:08;101197.63;;;17.78;59.21
27613;BME280;15036;48.094;-1.690;2023-04-29T02:40:33;101198.50;;;17.49;59.44
27613;BME280;15036;48.094;-1.690;2023-04-29T02:42:58;101196.94;;;17.34;59.42
27613;BME280;15036;48.094;-1.690;2023-04-29T02:45:25;101201.53;;;17.41;58.99
27613;BME280;15036;48.094;-1.690;2023-04-29T02:47:51;101194.84;;;17.66;58.82
27613;BME280;15036;48.094;-1.690;2023-04-29T02:50:16;101205.44;;;17.81;58.19
27613;BME280;15036;48.094;-1.690;2023-04-29T02:52:41;101213.03;;;17.38;59.47
27613;BME280;15036;48.094;-1.690;2023-04-29T02:55:07;101205.25;;;16.98;61.19
27613;BME280;15036;48.094;-1.690;2023-04-29T02:57:33;101205.41;;;16.85;61.15
27613;BME280;15036;48.094;-1.690;2023-04-29T02:59:59;101205.53;;;16.90;61.43
27613;BME280;15036;48.094;-1.690;2023-04-29T03:02:24;101204.75;;;17.19;60.55
27613;BME280;15036;48.094;-1.690;2023-04-29T03:04:50;101198.25;;;17.32;60.14
27613;BME280;15036;48.094;-1.690;2023-04-29T03:07:16;101207.88;;;16.93;61.26
27613;BME280;15036;48.094;-1.690;2023-04-29T03:09:41;101205.44;;;17.51;60.34
27613;BME280;15036;48.094;-1.690;2023-04-29T03:12:07;101200.56;;;17.94;59.11
27613;BME280;15036;48.094;-1.690;2023-04-29T03:14:32;101200.13;;;17.68;59.51
27613;BME280;15036;48.094;-1.690;2023-04-29T03:16:58;101200.97;;;17.68;59.66
27613;BME280;15036;48.094;-1.690;2023-04-29T03:19:23;101199.75;;;17.46;60.33
27613;BME280;15036;48.094;-1.690;2023-04-29T03:21:48;101204.03;;;17.90;58.70
27613;BME280;15036;48.094;-1.690;2023-04-29T03:24:14;101199.75;;;17.46;59.73
27613;BME280;15036;48.094;-1.690;2023-04-29T03:26:40;101190.81;;;17.92;58.66
27613;BME280;15036;48.094;-1.690;2023-04-29T03:29:07;101195.56;;;17.73;59.02
27613;BME280;15036;48.094;-1.690;2023-04-29T03:31:33;101202.66;;;17.81;58.96
27613;BME280;15036;48.094;-1.690;2023-04-29T03:33:58;101196.69;;;17.54;59.76
27613;BME280;15036;48.094;-1.690;2023-04-29T03:36:24;101201.44;;;17.77;58.91
27613;BME280;15036;48.094;-1.690;2023-04-29T03:38:49;101195.78;;;17.60;59.60
27613;BME280;15036;48.094;-1.690;2023-04-29T03:41:15;101192.56;;;17.75;59.42
27613;BME280;15036;48.094;-1.690;2023-04-29T03:43:41;101189.41;;;17.60;59.37
27613;BME280;15036;48.094;-1.690;2023-04-29T03:46:08;101186.78;;;17.65;59.29
27613;BME280;15036;48.094;-1.690;2023-04-29T03:48:34;101189.03;;;17.56;59.13
27613;BME280;15036;48.094;-1.690;2023-04-29T03:50:59;101192.84;;;17.55;59.36
27613;BME280;15036;48.094;-1.690;2023-04-29T03:53:25;101188.50;;;17.29;60.04
27613;BME280;15036;48.094;-1.690;2023-04-29T03:55:50;101184.09;;;17.10;60.33
27613;BME280;15036;48.094;-1.690;2023-04-29T03:58:16;101186.41;;;17.61;59.28
27613;BME280;15036;48.094;-1.690;2023-04-29T04:00:41;101199.72;;;17.53;59.23
27613;BME280;15036;48.094;-1.690;2023-04-29T04:03:07;101192.03;;;17.37;59.77
27613;BME280;15036;48.094;-1.690;2023-04-29T04:05:33;101195.78;;;17.42;60.03
27613;BME280;15036;48.094;-1.690;2023-04-29T04:07:58;101192.38;;;16.74;61.44
27613;BME280;15036;48.094;-1.690;2023-04-29T04:10:24;101194.03;;;17.29;60.42
27613;BME280;15036;48.094;-1.690;2023-04-29T04:12:50;101191.06;;;17.31;59.91
27613;BME280;15036;48.094;-1.690;2023-04-29T04:15:16;101187.53;;;17.72;59.24
27613;BME280;15036;48.094;-1.690;2023-04-29T04:17:41;101187.00;;;17.63;58.98
27613;BME280;15036;48.094;-1.690;2023-04-29T04:20:07;101185.09;;;17.64;59.42
27613;BME280;15036;48.094;-1.690;2023-04-29T04:22:33;101182.28;;;17.93;58.45
27613;BME280;15036;48.094;-1.690;2023-04-29T04:24:58;101186.50;;;17.96;58.27
27613;BME280;15036;48.094;-1.690;2023-04-29T04:27:23;101186.84;;;17.88;58.73
27613;BME280;15036;48.094;-1.690;2023-04-29T04:29:53;101198.16;;;17.98;58.82
27613;BME280;15036;48.094;-1.690;2023-04-29T04:32:20;101191.50;;;17.28;60.48
27613;BME280;15036;48.094;-1.690;2023-04-29T04:34:46;101190.81;;;17.80;59.27
27613;BME280;15036;48.094;-1.690;2023-04-29T04:37:12;101194.19;;;17.94;58.61
27613;BME280;15036;48.094;-1.690;2023-04-29T04:39:38;101193.56;;;17.51;59.46
27613;BME280;15036;48.094;-1.690;2023-04-29T04:42:03;101196.69;;;17.54;59.38
27613;BME280;15036;48.094;-1.690;2023-04-29T04:44:29;101197.81;;;17.94;58.20
27613;BME280;15036;48.094;-1.690;2023-04-29T04:46:55;101204.41;;;17.93;58.75
27613;BME280;15036;48.094;-1.690;2023-04-29T04:49:22;101202.97;;;17.61;59.64
27613;BME280;15036;48.094;-1.690;2023-04-29T04:51:49;101204.72;;;17.85;59.13
27613;BME280;15036;48.094;-1.690;2023-04-29T04:54:15;101202.63;;;17.69;59.32
27613;BME280;15036;48.094;-1.690;2023-04-29T04:56:41;101207.44;;;17.44;59.82
27613;BME280;15036;48.094;-1.690;2023-04-29T04:59:06;101211.97;;;17.57;59.96
27613;BME280;15036;48.094;-1.690;2023-04-29T05:01:32;101217.47;;;17.86;59.09
27613;BME280;15036;48.094;-1.690;2023-04-29T05:03:58;101206.66;;;17.85;59.43
27613;BME280;15036;48.094;-1.690;2023-04-29T05:06:24;101213.34;;;17.77;59.21
27613;BME280;15036;48.094;-1.690;2023-04-29T05:08:50;101224.22;;;17.90;58.48
27613;BME280;15036;48.094;-1.690;2023-04-29T05:11:19;101229.06;;;17.77;58.75
27613;BME280;15036;48.094;-1.690;2023-04-29T05:13:45;101228.53;;;17.86;58.63
27613;BME280;15036;48.094;-1.690;2023-04-29T05:16:11;101229.22;;;17.82;58.19
27613;BME280;15036;48.094;-1.690;2023-04-29T05:18:36;101236.69;;;18.34;57.25
27613;BME280;15036;48.094;-1.690;2023-04-29T05:21:01;101236.91;;;17.80;58.01
27613;BME280;15036;48.094;-1.690;2023-04-29T05:23:27;101245.63;;;17.77;58.64
27613;BME280;15036;48.094;-1.690;2023-04-29T05:25:52;101247.19;;;17.73;58.54
27613;BME280;15036;48.094;-1.690;2023-04-29T05:28:18;101256.53;;;17.90;58.06
27613;BME280;15036;48.094;-1.690;2023-04-29T05:30:43;101252.78;;;18.26;57.06
27613;BME280;15036;48.094;-1.690;2023-04-29T05:33:09;101250.44;;;18.11;56.88
27613;BME280;15036;48.094;-1.690;2023-04-29T05:35:35;101248.16;;;18.08;57.62
27613;BME280;15036;48.094;-1.690;2023-04-29T05:38:01;101254.94;;;18.35;56.81
27613;BME280;15036;48.094;-1.690;2023-04-29T05:40:26;101251.22;;;18.30;56.66
27613;BME280;15036;48.094;-1.690;2023-04-29T05:42:52;101253.53;;;18.44;56.39
27613;BME280;15036;48.094;-1.690;2023-04-29T05:45:17;101249.25;;;18.71;55.82
27613;BME280;15036;48.094;-1.690;2023-04-29T05:47:42;101243.38;;;18.79;55.56
27613;BME280;15036;48.094;-1.690;2023-04-29T05:50:08;101245.88;;;18.69;56.53
27613;BME280;15036;48.094;-1.690;2023-04-29T05:52:33;101251.06;;;18.66;55.94
27613;BME280;15036;48.094;-1.690;2023-04-29T05:54:59;101250.91;;;18.49;56.41
27613;BME280;15036;48.094;-1.690;2023-04-29T05:57:24;101251.78;;;18.50;56.44
27613;BME280;15036;48.094;-1.690;2023-04-29T05:59:49;101260.22;;;18.25;57.41
27613;BME280;15036;48.094;-1.690;2023-04-29T06:02:16;101252.84;;;18.49;56.82
27613;BME280;15036;48.094;-1.690;2023-04-29T06:04:42;101255.16;;;18.63;56.23
27613;BME280;15036;48.094;-1.690;2023-04-29T06:07:07;101258.75;;;18.64;56.75
27613;BME280;15036;48.094;-1.690;2023-04-29T06:09:35;101261.75;;;18.62;56.98
27613;BME280;15036;48.094;-1.690;2023-04-29T06:12:00;101265.59;;;18.61;56.59
27613;BME280;15036;48.094;-1.690;2023-04-29T06:14:25;101263.94;;;18.83;56.53
27613;BME280;15036;48.094;-1.690;2023-04-29T06:16:51;101276.66;;;18.73;56.15
27613;BME280;15036;48.094;-1.690;2023-04-29T06:19:17;101272.06;;;18.44;56.99
27613;BME280;15036;48.094;-1.690;2023-04-29T06:21:43;101270.66;;;18.64;56.58
27613;BME280;15036;48.094;-1.690;2023-04-29T06:24:09;101280.63;;;18.65;56.60
27613;BME280;15036;48.094;-1.690;2023-04-29T06:26:34;101279.19;;;18.63;57.12
27613;BME280;15036;48.094;-1.690;2023-04-29T06:28:59;101283.25;;;18.49;56.84
27613;BME280;15036;48.094;-1.690;2023-04-29T06:31:25;101287.03;;;18.77;56.46
27613;BME280;15036;48.094;-1.690;2023-04-29T06:33:50;101285.09;;;18.89;56.55
27613;BME280;15036;48.094;-1.690;2023-04-29T06:36:15;101280.88;;;18.87;56.35
27613;BME280;15036;48.094;-1.690;2023-04-29T06:38:41;101278.22;;;18.80;56.56
27613;BME280;15036;48.094;-1.690;2023-04-29T06:41:07;101281.72;;;18.76;56.60
27613;BME280;15036;48.094;-1.690;2023-04-29T06:43:33;101275.69;;;19.02;55.89
27613;BME280;15036;48.094;-1.690;2023-04-29T06:45:58;101294.47;;;19.12;55.72
27613;BME280;15036;48.094;-1.690;2023-04-29T06:48:24;101287.88;;;19.01;55.67
27613;BME280;15036;48.094;-1.690;2023-04-29T06:50:56;101286.31;;;18.93;55.70
27613;BME280;15036;48.094;-1.690;2023-04-29T06:53:22;101293.75;;;18.81;56.46
27613;BME280;15036;48.094;-1.690;2023-04-29T06:55:48;101298.94;;;18.37;56.94
27613;BME280;15036;48.094;-1.690;2023-04-29T06:58:17;101292.44;;;18.95;56.04
27613;BME280;15036;48.094;-1.690;2023-04-29T07:00:44;101295.22;;;19.07;55.47
27613;BME280;15036;48.094;-1.690;2023-04-29T07:03:11;101298.06;;;19.24;55.32
27613;BME280;15036;48.094;-1.690;2023-04-29T07:05:37;101299.63;;;19.20;54.94
27613;BME280;15036;48.094;-1.690;2023-04-29T07:08:13;101298.44;;;19.04;54.94
27613;BME280;15036;48.094;-1.690;2023-04-29T07:10:39;101304.09;;;19.09;55.43
27613;BME280;15036;48.094;-1.690;2023-04-29T07:13:05;101302.78;;;19.35;54.50
27613;BME280;15036;48.094;-1.690;2023-04-29T07:15:35;101317.22;;;19.48;54.35
27613;BME280;15036;48.094;-1.690;2023-04-29T07:18:05;101307.34;;;19.29;54.47
27613;BME280;15036;48.094;-1.690;2023-04-29T07:20:31;101308.44;;;19.17;54.70
27613;BME280;15036;48.094;-1.690;2023-04-29T07:22:56;101305.91;;;19.27;54.39
27613;BME280;15036;48.094;-1.690;2023-04-29T07:25:22;101317.22;;;19.25;53.93
27613;BME280;15036;48.094;-1.690;2023-04-29T07:27:47;101323.72;;;19.19;54.43
27613;BME280;15036;48.094;-1.690;2023-04-29T07:30:13;101320.72;;;19.21;53.95
27613;BME280;15036;48.094;-1.690;2023-04-29T07:32:38;101319.50;;;19.40;53.91
27613;BME280;15036;48.094;-1.690;2023-04-29T07:35:04;101330.69;;;19.33;53.70
27613;BME280;15036;48.094;-1.690;2023-04-29T07:37:29;101335.63;;;19.20;54.40
27613;BME280;15036;48.094;-1.690;2023-04-29T07:39:56;101345.25;;;19.52;53.54
27613;BME280;15036;48.094;-1.690;2023-04-29T07:42:21;101342.47;;;19.52;53.86
27613;BME280;15036;48.094;-1.690;2023-04-29T07:44:46;101340.56;;;19.52;53.65
27613;BME280;15036;48.094;-1.690;2023-04-29T07:47:12;101351.66;;;19.29;53.68
27613;BME280;15036;48.094;-1.690;2023-04-29T07:49:37;101357.53;;;19.56;53.49
27613;BME280;15036;48.094;-1.690;2023-04-29T07:52:06;101362.75;;;19.41;53.28
27613;BME280;15036;48.094;-1.690;2023-04-29T07:54:36;101367.53;;;19.22;53.30
27613;BME280;15036;48.094;-1.690;2023-04-29T07:57:03;101364.25;;;19.14;53.70
27613;BME280;15036;48.094;-1.690;2023-04-29T07:59:29;101359.69;;;19.54;53.09
27613;BME280;15036;48.094;-1.690;2023-04-29T08:01:55;101357.75;;;19.66;52.70
27613;BME280;15036;48.094;-1.690;2023-04-29T08:04:21;101367.22;;;19.81;52.11
27613;BME280;15036;48.094;-1.690;2023-04-29T08:06:47;101368.22;;;19.64;52.73
27613;BME280;15036;48.094;-1.690;2023-04-29T08:09:13;101371.06;;;19.92;52.38
27613;BME280;15036;48.094;-1.690;2023-04-29T08:11:38;101368.81;;;19.77;52.59
27613;BME280;15036;48.094;-1.690;2023-04-29T08:14:04;101366.28;;;19.76;52.43
27613;BME280;15036;48.094;-1.690;2023-04-29T08:16:30;101368.97;;;19.99;52.21
27613;BME280;15036;48.094;-1.690;2023-04-29T08:18:56;101366.97;;;19.95;52.00
27613;BME280;15036;48.094;-1.690;2023-04-29T08:21:21;101364.00;;;20.24;51.89
27613;BME280;15036;48.094;-1.690;2023-04-29T08:23:47;101359.53;;;20.23;51.37
27613;BME280;15036;48.094;-1.690;2023-04-29T08:26:12;101365.06;;;20.23;51.19
27613;BME280;15036;48.094;-1.690;2023-04-29T08:28:38;101352.41;;;20.16;51.36
27613;BME280;15036;48.094;-1.690;2023-04-29T08:31:03;101360.72;;;20.27;50.74
27613;BME280;15036;48.094;-1.690;2023-04-29T08:33:34;101363.63;;;20.21;51.13
27613;BME280;15036;48.094;-1.690;2023-04-29T08:36:01;101362.13;;;20.58;50.21
27613;BME280;15036;48.094;-1.690;2023-04-29T08:38:30;101362.72;;;20.60;50.16
27613;BME280;15036;48.094;-1.690;2023-04-29T08:40:56;101363.88;;;20.64;50.47
27613;BME280;15036;48.094;-1.690;2023-04-29T08:43:22;101367.44;;;20.59;49.97
27613;BME280;15036;48.094;-1.690;2023-04-29T08:45:48;101365.34;;;20.38;50.35
27613;BME280;15036;48.094;-1.690;2023-04-29T08:48:15;101363.75;;;20.42;50.37
27613;BME280;15036;48.094;-1.690;2023-04-29T08:50:41;101366.25;;;20.27;50.66
27613;BME280;15036;48.094;-1.690;2023-04-29T08:53:08;101364.81;;;20.53;50.23
27613;BME280;15036;48.094;-1.690;2023-04-29T08:55:35;101364.47;;;20.49;49.82
27613;BME280;15036;48.094;-1.690;2023-04-29T08:58:02;101367.31;;;20.54;50.22
27613;BME280;15036;48.094;-1.690;2023-04-29T09:00:29;101373.38;;;20.68;49.81
27613;BME280;15036;48.094;-1.690;2023-04-29T09:02:56;101373.16;;;20.69;49.90
27613;BME280;15036;48.094;-1.690;2023-04-29T09:05:23;101383.34;;;20.36;50.16
27613;BME280;15036;48.094;-1.690;2023-04-29T09:07:50;101383.09;;;20.99;49.45
27613;BME280;15036;48.094;-1.690;2023-04-29T09:10:15;101385.66;;;20.55;49.73
27613;BME280;15036;48.094;-1.690;2023-04-29T09:12:42;101381.31;;;20.59;49.47
27613;BME280;15036;48.094;-1.690;2023-04-29T09:15:07;101379.38;;;20.77;48.74
27613;BME280;15036;48.094;-1.690;2023-04-29T09:17:41;101379.03;;;21.01;48.77
27613;BME280;15036;48.094;-1.690;2023-04-29T09:22:51;101375.34;;;21.34;48.33
27613;BME280;15036;48.094;-1.690;2023-04-29T09:25:17;101395.06;;;20.54;49.92
27613;BME280;15036;48.094;-1.690;2023-04-29T09:27:43;101389.22;;;20.67;50.11
27613;BME280;15036;48.094;-1.690;2023-04-29T09:30:09;101391.16;;;20.67;50.12
27613;BME280;15036;48.094;-1.690;2023-04-29T09:32:35;101389.22;;;20.67;50.08
27613;BME280;15036;48.094;-1.690;2023-04-29T09:37:48;101391.97;;;21.12;49.07
27613;BME280;15036;48.094;-1.690;2023-04-29T09:40:30;101392.88;;;21.18;48.58
27613;BME280;15036;48.094;-1.690;2023-04-29T09:42:56;101390.84;;;21.46;48.00
27613;BME280;15036;48.094;-1.690;2023-04-29T09:45:42;101384.19;;;21.69;48.14
27613;BME280;15036;48.094;-1.690;2023-04-29T09:48:08;101384.75;;;21.49;47.75
27613;BME280;15036;48.094;-1.690;2023-04-29T09:50:35;101392.34;;;21.76;47.03
27613;BME280;15036;48.094;-1.690;2023-04-29T09:53:05;101381.72;;;21.89;46.57
27613;BME280;15036;48.094;-1.690;2023-04-29T09:58:47;101385.75;;;21.98;46.61
27613;BME280;15036;48.094;-1.690;2023-04-29T10:01:13;101385.03;;;21.86;46.95
27613;BME280;15036;48.094;-1.690;2023-04-29T10:03:42;101388.41;;;22.10;46.47
27613;BME280;15036;48.094;-1.690;2023-04-29T10:06:08;101382.97;;;22.47;45.97
27613;BME280;15036;48.094;-1.690;2023-04-29T10:08:34;101383.44;;;22.92;45.34
27613;BME280;15036;48.094;-1.690;2023-04-29T10:11:01;101386.53;;;22.64;45.37
27613;BME280;15036;48.094;-1.690;2023-04-29T10:13:27;101382.38;;;22.98;44.42
27613;BME280;15036;48.094;-1.690;2023-04-29T10:16:43;101380.06;;;22.90;44.48
27613;BME280;15036;48.094;-1.690;2023-04-29T10:19:03;101382.84;;;22.36;45.60
27613;BME280;15036;48.094;-1.690;2023-04-29T10:21:31;101382.34;;;22.39;45.52
27613;BME280;15036;48.094;-1.690;2023-04-29T10:23:58;101381.34;;;21.42;47.42
27613;BME280;15036;48.094;-1.690;2023-04-29T10:26:29;101381.22;;;22.94;45.02
27613;BME280;15036;48.094;-1.690;2023-04-29T10:28:57;101368.84;;;23.48;44.18
27613;BME280;15036;48.094;-1.690;2023-04-29T10:31:27;101379.53;;;24.13;43.20
27613;BME280;15036;48.094;-1.690;2023-04-29T10:33:57;101379.31;;;24.30;41.90
27613;BME280;15036;48.094;-1.690;2023-04-29T10:36:27;101369.69;;;24.00;42.26
27613;BME280;15036;48.094;-1.690;2023-04-29T10:38:57;101370.38;;;24.33;41.30
27613;BME280;15036;48.094;-1.690;2023-04-29T10:41:30;101374.03;;;24.43;41.75
27613;BME280;15036;48.094;-1.690;2023-04-29T10:43:58;101373.53;;;24.71;41.41
27613;BME280;15036;48.094;-1.690;2023-04-29T10:46:25;101375.22;;;24.72;40.99
27613;BME280;15036;48.094;-1.690;2023-04-29T10:49:02;101367.41;;;25.20;40.63
27613;BME280;15036;48.094;-1.690;2023-04-29T10:51:44;101383.09;;;25.06;40.53
27613;BME280;15036;48.094;-1.690;2023-04-29T10:54:14;101371.06;;;25.10;40.27
27613;BME280;15036;48.094;-1.690;2023-04-29T11:01:57;101371.53;;;23.80;42.23
27613;BME280;15036;48.094;-1.690;2023-04-29T11:04:23;101364.94;;;24.01;42.70
27613;BME280;15036;48.094;-1.690;2023-04-29T11:06:53;101364.78;;;24.28;41.98
27613;BME280;15036;48.094;-1.690;2023-04-29T11:09:25;101362.59;;;24.45;41.99
27613;BME280;15036;48.094;-1.690;2023-04-29T11:14:37;101355.13;;;25.11;40.62
27613;BME280;15036;48.094;-1.690;2023-04-29T11:17:15;101353.75;;;25.13;40.24
27613;BME280;15036;48.094;-1.690;2023-04-29T11:19:43;101358.75;;;25.46;40.17
27613;BME280;15036;48.094;-1.690;2023-04-29T11:27:14;101341.78;;;26.07;38.99
27613;BME280;15036;48.094;-1.690;2023-04-29T11:29:40;101332.69;;;25.66;39.79
27613;BME280;15036;48.094;-1.690;2023-04-29T11:32:06;101332.38;;;25.72;39.93
27613;BME280;15036;48.094;-1.690;2023-04-29T11:34:32;101330.41;;;25.78;39.47
27613;BME280;15036;48.094;-1.690;2023-04-29T11:36:57;101331.47;;;25.92;39.41
27613;BME280;15036;48.094;-1.690;2023-04-29T11:39:23;101326.06;;;26.06;38.81
27613;BME280;15036;48.094;-1.690;2023-04-29T11:41:48;101319.28;;;25.58;39.64
27613;BME280;15036;48.094;-1.690;2023-04-29T11:44:14;101323.56;;;26.04;38.91
27613;BME280;15036;48.094;-1.690;2023-04-29T11:46:45;101320.94;;;26.23;39.08
27613;BME280;15036;48.094;-1.690;2023-04-29T11:49:11;101316.19;;;26.23;38.76
27613;BME280;15036;48.094;-1.690;2023-04-29T11:51:36;101317.66;;;26.16;39.12
27613;BME280;15036;48.094;-1.690;2023-04-29T11:54:01;101313.06;;;26.69;38.58
27613;BME280;15036;48.094;-1.690;2023-04-29T11:56:27;101324.28;;;26.69;37.53
27613;BME280;15036;48.094;-1.690;2023-04-29T11:58:54;101318.16;;;27.00;37.50
27613;BME280;15036;48.094;-1.690;2023-04-29T12:01:24;101313.69;;;26.99;37.08
27613;BME280;15036;48.094;-1.690;2023-04-29T12:03:50;101309.66;;;27.39;36.31
27613;BME280;15036;48.094;-1.690;2023-04-29T12:06:15;101306.03;;;27.62;36.58
27613;BME280;15036;48.094;-1.690;2023-04-29T12:08:41;101306.50;;;27.93;35.55
27613;BME280;15036;48.094;-1.690;2023-04-29T12:11:06;101311.06;;;28.07;35.21
27613;BME280;15036;48.094;-1.690;2023-04-29T12:13:32;101310.19;;;28.12;35.96
27613;BME280;15036;48.094;-1.690;2023-04-29T12:16:00;101312.47;;;28.28;35.81
27613;BME280;15036;48.094;-1.690;2023-04-29T12:18:27;101295.50;;;28.15;35.00
27613;BME280;15036;48.094;-1.690;2023-04-29T12:20:53;101301.06;;;28.01;35.61
27613;BME280;15036;48.094;-1.690;2023-04-29T12:23:24;101306.69;;;27.54;36.39
27613;BME280;15036;48.094;-1.690;2023-04-29T12:25:55;101297.94;;;28.03;35.82
27613;BME280;15036;48.094;-1.690;2023-04-29T12:28:21;101302.06;;;28.29;35.13
27613;BME280;15036;48.094;-1.690;2023-04-29T12:30:48;101299.63;;;28.04;34.85
27613;BME280;15036;48.094;-1.690;2023-04-29T12:33:21;101301.56;;;28.64;34.39
27613;BME280;15036;48.094;-1.690;2023-04-29T12:35:50;101291.47;;;29.09;34.68
27613;BME280;15036;48.094;-1.690;2023-04-29T12:38:20;101293.28;;;30.14;33.36
27613;BME280;15036;48.094;-1.690;2023-04-29T12:40:47;101282.44;;;30.78;31.29
27613;BME280;15036;48.094;-1.690;2023-04-29T12:43:12;101287.13;;;31.05;31.32
27613;BME280;15036;48.094;-1.690;2023-04-29T12:45:38;101288.72;;;31.20;31.33
27613;BME280;15036;48.094;-1.690;2023-04-29T12:48:04;101282.63;;;30.82;31.43
27613;BME280;15036;48.094;-1.690;2023-04-29T12:50:30;101290.47;;;31.07;30.92
27613;BME280;15036;48.094;-1.690;2023-04-29T12:52:57;101276.56;;;30.44;31.08
27613;BME280;15036;48.094;-1.690;2023-04-29T12:55:23;101279.31;;;30.80;31.37
27613;BME280;15036;48.094;-1.690;2023-04-29T12:57:48;101280.13;;;30.80;31.48
27613;BME280;15036;48.094;-1.690;2023-04-29T13:00:14;101274.47;;;30.58;30.88
27613;BME280;15036;48.094;-1.690;2023-04-29T13:02:40;101278.94;;;30.95;30.60
27613;BME280;15036;48.094;-1.690;2023-04-29T13:05:06;101279.09;;;31.60;29.69
27613;BME280;15036;48.094;-1.690;2023-04-29T13:07:31;101283.44;;;32.14;29.32
27613;BME280;15036;48.094;-1.690;2023-04-29T13:09:57;101283.97;;;32.67;29.05
27613;BME280;15036;48.094;-1.690;2023-04-29T13:12:22;101286.44;;;32.86;27.96
27613;BME280;15036;48.094;-1.690;2023-04-29T13:14:48;101288.78;;;33.01;27.67